Time;durP1;ratioP1;P1;durP2;ratioP2;P2;SDS_P1;SDS_P2;PMS_P1;PMS_P2;Temp;Humidity;BMP_temperature;BMP_pressure;BME280_temperature;BME280_humidity;BME280_pressure;Samples;Min_cycle;Max_cycle;Signal;HPM_P1;HPM_P2
2022/06/30 00:00:06;;;;;;;2.92;2.35;;;;;;;;;;7399143;19;20020;-76
2022/06/30 00:02:31;;;;;;;2.42;1.70;;;;;;;;;;7397502;19;20058;-76
2022/06/30 00:04:56;;;;;;;3.95;1.88;;;;;;;;;;7394319;19;20584;-77
2022/06/30 00:07:22;;;;;;;2.58;1.30;;;;;;;;;;7394927;19;20042;-76
2022/06/30 00:09:50;;;;;;;4.93;2.05;;;;;;;;;;7395479;19;20518;-76
2022/06/30 00:12:15;;;;;;;2.35;1.65;;;;;;;;;;7396805;19;20007;-76
2022/06/30 00:14:40;;;;;;;1.48;1.25;;;;;;;;;;7389365;19;20006;-76
2022/06/30 00:17:07;;;;;;;2.40;1.42;;;;;;;;;;7394571;19;20021;-76
2022/06/30 00:19:32;;;;;;;5.47;2.03;;;;;;;;;;7397916;19;20046;-77
2022/06/30 00:21:58;;;;;;;5.53;2.05;;;;;;;;;;7397320;19;20018;-76
2022/06/30 00:24:23;;;;;;;3.45;2.38;;;;;;;;;;7393817;19;20003;-76
2022/06/30 00:26:49;;;;;;;5.97;1.70;;;;;;;;;;7396546;19;20014;-76
2022/06/30 00:29:14;;;;;;;3.55;2.40;;;;;;;;;;7396638;19;20028;-76
2022/06/30 00:31:39;;;;;;;2.25;1.50;;;;;;;;;;7394787;19;20008;-76
2022/06/30 00:34:05;;;;;;;3.25;1.60;;;;;;;;;;7395663;19;20014;-76
2022/06/30 00:36:30;;;;;;;4.55;1.90;;;;;;;;;;7396021;19;20007;-76
2022/06/30 00:38:56;;;;;;;7.72;2.63;;;;;;;;;;7395448;19;20471;-76
2022/06/30 00:41:21;;;;;;;4.13;2.45;;;;;;;;;;7396839;19;20037;-77
2022/06/30 00:43:47;;;;;;;5.03;2.20;;;;;;;;;;7392668;19;20018;-77
2022/06/30 00:46:14;;;;;;;3.85;2.20;;;;;;;;;;7390994;19;20015;-76
2022/06/30 00:48:40;;;;;;;3.85;2.30;;;;;;;;;;7396018;19;20006;-76
2022/06/30 00:51:06;;;;;;;7.35;2.00;;;;;;;;;;7392805;19;20480;-76
2022/06/30 00:53:35;;;;;;;3.20;1.80;;;;;;;;;;7391019;19;20102;-76
2022/06/30 00:56:03;;;;;;;2.60;1.90;;;;;;;;;;7391327;19;20465;-76
2022/06/30 00:58:30;;;;;;;2.08;1.77;;;;;;;;;;7392772;19;20447;-76
2022/06/30 01:00:57;;;;;;;3.17;1.80;;;;;;;;;;7395145;19;20004;-76
2022/06/30 01:03:23;;;;;;;3.28;2.03;;;;;;;;;;7388795;19;20015;-77
2022/06/30 01:05:48;;;;;;;4.85;2.10;;;;;;;;;;7389075;19;20013;-77
2022/06/30 01:08:16;;;;;;;3.88;1.83;;;;;;;;;;7391797;19;20010;-77
2022/06/30 01:13:26;;;;;;;8.10;1.95;;;;;;;;;;7396405;19;20018;-76
2022/06/30 01:15:51;;;;;;;6.07;2.28;;;;;;;;;;7391195;19;20014;-76
2022/06/30 01:18:16;;;;;;;1.73;1.52;;;;;;;;;;7390153;19;20018;-76
2022/06/30 01:20:42;;;;;;;5.80;2.08;;;;;;;;;;7393174;19;20027;-77
2022/06/30 01:23:07;;;;;;;4.43;2.10;;;;;;;;;;7391585;19;20014;-76
2022/06/30 01:25:33;;;;;;;3.47;1.92;;;;;;;;;;7391279;19;20007;-76
2022/06/30 01:27:59;;;;;;;4.50;2.47;;;;;;;;;;7389954;19;20019;-76
2022/06/30 01:30:25;;;;;;;5.60;2.17;;;;;;;;;;7393281;19;20095;-76
2022/06/30 01:32:51;;;;;;;3.25;2.00;;;;;;;;;;7390268;19;20350;-76
2022/06/30 01:35:16;;;;;;;2.53;2.13;;;;;;;;;;7392252;19;20014;-76
2022/06/30 01:37:48;;;;;;;2.40;1.80;;;;;;;;;;7389412;19;20430;-76
2022/06/30 01:40:15;;;;;;;2.83;1.75;;;;;;;;;;7394056;19;20019;-76
2022/06/30 01:42:40;;;;;;;2.85;1.92;;;;;;;;;;7388994;19;20010;-76
2022/06/30 01:45:06;;;;;;;6.10;1.90;;;;;;;;;;7390113;19;20018;-76
2022/06/30 01:47:32;;;;;;;6.18;2.13;;;;;;;;;;7391915;19;20003;-76
2022/06/30 01:49:58;;;;;;;3.60;2.05;;;;;;;;;;7391002;19;20379;-76
2022/06/30 01:52:23;;;;;;;3.22;2.10;;;;;;;;;;7390725;19;20039;-76
2022/06/30 01:54:49;;;;;;;2.67;2.17;;;;;;;;;;7390558;19;19998;-76
2022/06/30 01:57:14;;;;;;;3.63;2.10;;;;;;;;;;7390065;19;20014;-76
2022/06/30 01:59:39;;;;;;;4.30;1.92;;;;;;;;;;7389702;19;20009;-76
2022/06/30 02:02:05;;;;;;;4.22;2.17;;;;;;;;;;7389746;19;20022;-76
2022/06/30 02:04:48;;;;;;;5.32;2.08;;;;;;;;;;7392422;19;20014;-76
2022/06/30 02:07:14;;;;;;;3.50;2.20;;;;;;;;;;7389434;19;20011;-76
2022/06/30 02:09:40;;;;;;;4.55;1.92;;;;;;;;;;7389321;19;20486;-76
2022/06/30 02:14:51;;;;;;;5.00;2.20;;;;;;;;;;7391290;19;20017;-76
2022/06/30 02:17:16;;;;;;;1.85;1.33;;;;;;;;;;7387077;19;20331;-76
2022/06/30 02:19:41;;;;;;;3.72;1.80;;;;;;;;;;7390936;19;20003;-75
2022/06/30 02:22:07;;;;;;;3.83;2.30;;;;;;;;;;7387540;19;20457;-76
2022/06/30 02:24:32;;;;;;;2.78;2.10;;;;;;;;;;7390344;19;20011;-76
2022/06/30 02:26:58;;;;;;;3.45;2.00;;;;;;;;;;7392389;19;20331;-76
2022/06/30 02:29:23;;;;;;;3.53;1.40;;;;;;;;;;7398152;19;20037;-76
2022/06/30 02:31:48;;;;;;;2.33;1.90;;;;;;;;;;7396239;19;20077;-76
2022/06/30 02:34:14;;;;;;;1.77;1.67;;;;;;;;;;7395970;19;20021;-76
2022/06/30 02:36:39;;;;;;;3.67;1.88;;;;;;;;;;7395792;19;20006;-76
2022/06/30 02:39:04;;;;;;;2.75;2.33;;;;;;;;;;7397497;19;20356;-76
2022/06/30 02:41:30;;;;;;;3.13;2.42;;;;;;;;;;7397125;19;20066;-76
2022/06/30 02:43:55;;;;;;;4.63;2.03;;;;;;;;;;7397702;19;20006;-76
2022/06/30 02:46:20;;;;;;;2.00;1.60;;;;;;;;;;7392931;19;19998;-76
2022/06/30 02:48:46;;;;;;;3.03;2.13;;;;;;;;;;7396560;19;20006;-76
2022/06/30 02:51:11;;;;;;;4.63;2.28;;;;;;;;;;7395882;19;20018;-76
2022/06/30 02:53:36;;;;;;;3.85;2.22;;;;;;;;;;7393771;19;20007;-76
2022/06/30 02:56:02;;;;;;;2.58;1.50;;;;;;;;;;7392551;19;20048;-76
2022/06/30 02:58:27;;;;;;;3.30;1.90;;;;;;;;;;7396521;19;20007;-76
2022/06/30 03:00:52;;;;;;;3.35;1.77;;;;;;;;;;7394739;19;20010;-76
2022/06/30 03:03:17;;;;;;;6.13;2.92;;;;;;;;;;7398414;19;20018;-76
2022/06/30 03:05:43;;;;;;;5.10;2.55;;;;;;;;;;7394321;19;20010;-76
2022/06/30 03:08:08;;;;;;;13.15;2.80;;;;;;;;;;7394244;19;20363;-76
2022/06/30 03:10:34;;;;;;;3.25;2.28;;;;;;;;;;7395074;19;20041;-76
2022/06/30 03:12:59;;;;;;;7.35;2.60;;;;;;;;;;7397314;19;20478;-76
2022/06/30 03:15:24;;;;;;;6.30;2.40;;;;;;;;;;7394098;19;20010;-76
2022/06/30 03:17:50;;;;;;;1.90;1.80;;;;;;;;;;7394969;19;20025;-76
2022/06/30 03:20:15;;;;;;;2.55;2.22;;;;;;;;;;7395128;19;20327;-76
2022/06/30 03:22:40;;;;;;;2.33;1.40;;;;;;;;;;7394311;19;20330;-77
2022/06/30 03:25:07;;;;;;;2.97;2.10;;;;;;;;;;7392137;19;20466;-76
2022/06/30 03:27:32;;;;;;;22.65;3.20;;;;;;;;;;7395560;19;20481;-76
2022/06/30 03:29:58;;;;;;;4.55;2.55;;;;;;;;;;7394294;19;20015;-76
2022/06/30 03:32:23;;;;;;;3.70;2.20;;;;;;;;;;7394114;19;20029;-76
2022/06/30 03:34:48;;;;;;;2.28;2.05;;;;;;;;;;7393070;19;20121;-76
2022/06/30 03:37:14;;;;;;;4.30;2.28;;;;;;;;;;7393951;19;20006;-76
2022/06/30 03:39:39;;;;;;;4.07;2.53;;;;;;;;;;7394227;19;20003;-76
2022/06/30 03:42:05;;;;;;;1.58;1.40;;;;;;;;;;7391958;19;20006;-76
2022/06/30 03:44:30;;;;;;;4.32;2.00;;;;;;;;;;7393795;19;20473;-76
2022/06/30 03:46:56;;;;;;;5.28;2.53;;;;;;;;;;7393887;19;19995;-76
2022/06/30 03:49:22;;;;;;;4.78;2.30;;;;;;;;;;7393087;19;20010;-76
2022/06/30 03:51:47;;;;;;;2.47;1.83;;;;;;;;;;7393148;19;20013;-75
2022/06/30 03:54:13;;;;;;;4.32;2.63;;;;;;;;;;7379487;19;20018;-76
2022/06/30 03:56:38;;;;;;;5.70;2.75;;;;;;;;;;7393413;19;20014;-76
2022/06/30 03:59:03;;;;;;;5.95;3.15;;;;;;;;;;7393072;19;20338;-76
2022/06/30 04:01:28;;;;;;;4.97;2.90;;;;;;;;;;7393559;19;20027;-76
2022/06/30 04:03:54;;;;;;;3.25;2.85;;;;;;;;;;7391508;19;20455;-76
2022/06/30 04:06:19;;;;;;;3.75;3.00;;;;;;;;;;7388785;19;20015;-74
2022/06/30 04:08:44;;;;;;;10.43;3.25;;;;;;;;;;7390232;19;20010;-75
2022/06/30 04:11:10;;;;;;;4.93;3.05;;;;;;;;;;7389774;19;20099;-75
2022/06/30 04:13:35;;;;;;;2.85;2.38;;;;;;;;;;7393056;19;20013;-75
2022/06/30 04:16:01;;;;;;;5.28;3.20;;;;;;;;;;7386575;19;20007;-76
2022/06/30 04:18:26;;;;;;;2.97;2.33;;;;;;;;;;7392980;19;20018;-76
2022/06/30 04:20:51;;;;;;;3.00;2.10;;;;;;;;;;7393441;19;20014;-76
2022/06/30 04:23:16;;;;;;;2.42;2.17;;;;;;;;;;7391370;19;20014;-76
2022/06/30 04:25:42;;;;;;;3.22;2.38;;;;;;;;;;7385963;19;20087;-76
2022/06/30 04:28:07;;;;;;;3.50;2.47;;;;;;;;;;7388774;19;20007;-76
2022/06/30 04:33:17;;;;;;;4.68;3.22;;;;;;;;;;7395168;19;20104;-76
2022/06/30 04:35:42;;;;;;;4.32;2.67;;;;;;;;;;7389399;19;20055;-76
2022/06/30 04:38:08;;;;;;;6.55;2.90;;;;;;;;;;7390259;19;20014;-76
2022/06/30 04:43:17;;;;;;;3.33;2.08;;;;;;;;;;7390224;19;20540;-76
2022/06/30 04:45:43;;;;;;;3.17;1.83;;;;;;;;;;7389604;19;20019;-76
2022/06/30 04:48:08;;;;;;;9.80;2.67;;;;;;;;;;7391149;19;20347;-77
2022/06/30 04:50:34;;;;;;;3.83;2.33;;;;;;;;;;7391243;19;20010;-76
2022/06/30 04:52:59;;;;;;;2.42;2.08;;;;;;;;;;7388795;19;20014;-76
2022/06/30 04:55:25;;;;;;;3.90;1.92;;;;;;;;;;7391388;19;20014;-76
2022/06/30 04:57:50;;;;;;;4.15;2.72;;;;;;;;;;7388318;19;20017;-76
2022/06/30 05:00:16;;;;;;;4.07;2.30;;;;;;;;;;7391131;19;20390;-76
2022/06/30 05:02:41;;;;;;;4.57;2.03;;;;;;;;;;7391715;19;20012;-76
2022/06/30 05:05:07;;;;;;;4.15;2.60;;;;;;;;;;7391637;19;20403;-76
2022/06/30 05:07:32;;;;;;;4.95;2.72;;;;;;;;;;7390848;19;20338;-76
2022/06/30 05:09:58;;;;;;;3.00;2.10;;;;;;;;;;7389702;19;20018;-75
2022/06/30 05:12:23;;;;;;;2.78;2.15;;;;;;;;;;7387639;19;20014;-76
2022/06/30 05:14:48;;;;;;;3.38;1.70;;;;;;;;;;7388716;19;20021;-76
2022/06/30 05:17:14;;;;;;;1.80;1.70;;;;;;;;;;7389784;19;20011;-76
2022/06/30 05:19:39;;;;;;;3.05;2.10;;;;;;;;;;7390283;19;20014;-76
2022/06/30 05:22:05;;;;;;;5.15;2.22;;;;;;;;;;7389097;19;20003;-76
2022/06/30 05:27:15;;;;;;;1.85;1.58;;;;;;;;;;7389784;19;20022;-76
2022/06/30 05:29:40;;;;;;;1.60;1.50;;;;;;;;;;7389360;19;20066;-76
2022/06/30 05:32:07;;;;;;;6.93;1.83;;;;;;;;;;7388650;19;20002;-76
2022/06/30 05:34:33;;;;;;;1.95;1.80;;;;;;;;;;7387387;19;20082;-76
2022/06/30 05:36:58;;;;;;;5.90;1.73;;;;;;;;;;7390407;19;20348;-76
2022/06/30 05:39:24;;;;;;;3.13;1.45;;;;;;;;;;7388074;19;20006;-76
2022/06/30 05:41:49;;;;;;;2.38;2.00;;;;;;;;;;7392180;19;20014;-76
2022/06/30 05:44:14;;;;;;;3.13;1.73;;;;;;;;;;7391683;19;20015;-76
2022/06/30 05:46:40;;;;;;;2.53;2.28;;;;;;;;;;7380292;19;20345;-76
2022/06/30 05:49:06;;;;;;;2.10;1.90;;;;;;;;;;7388166;19;20474;-76
2022/06/30 05:51:32;;;;;;;5.70;1.85;;;;;;;;;;7391312;19;20017;-76
2022/06/30 05:53:57;;;;;;;4.15;2.28;;;;;;;;;;7383455;19;20007;-76
2022/06/30 05:56:23;;;;;;;1.85;1.60;;;;;;;;;;7394144;19;20013;-76
2022/06/30 05:58:48;;;;;;;1.83;1.55;;;;;;;;;;7392476;19;19999;-77
2022/06/30 06:01:13;;;;;;;4.57;1.92;;;;;;;;;;7392942;19;20339;-76
2022/06/30 06:03:38;;;;;;;2.72;2.28;;;;;;;;;;7399285;19;20467;-76
2022/06/30 06:06:06;;;;;;;2.22;1.80;;;;;;;;;;7396668;19;20050;-77
2022/06/30 06:08:31;;;;;;;4.45;2.20;;;;;;;;;;7403691;19;19999;-78
2022/06/30 06:11:02;;;;;;;3.28;2.20;;;;;;;;;;7407328;19;20021;-78
2022/06/30 06:13:28;;;;;;;2.40;1.75;;;;;;;;;;7404669;19;20022;-78
2022/06/30 06:15:54;;;;;;;2.63;2.17;;;;;;;;;;7395436;19;20010;-78
2022/06/30 06:18:19;;;;;;;7.28;2.47;;;;;;;;;;7404792;19;20002;-78
2022/06/30 06:20:45;;;;;;;2.50;1.90;;;;;;;;;;7405185;19;20003;-78
2022/06/30 06:23:10;;;;;;;2.50;1.80;;;;;;;;;;7406751;19;20028;-78
2022/06/30 06:25:35;;;;;;;3.13;2.10;;;;;;;;;;7402746;19;20067;-78
2022/06/30 06:30:45;;;;;;;4.18;2.03;;;;;;;;;;7410273;19;20027;-78
2022/06/30 06:33:10;;;;;;;4.95;2.28;;;;;;;;;;7406444;19;20010;-78
2022/06/30 06:35:35;;;;;;;4.68;2.50;;;;;;;;;;7405943;19;20013;-78
2022/06/30 06:38:01;;;;;;;5.72;2.50;;;;;;;;;;7396591;19;20014;-78
2022/06/30 06:40:27;;;;;;;2.70;2.20;;;;;;;;;;7401351;19;19999;-78
2022/06/30 06:42:52;;;;;;;2.75;2.08;;;;;;;;;;7404076;19;20105;-78
2022/06/30 06:45:18;;;;;;;3.80;2.10;;;;;;;;;;7401654;19;20419;-78
2022/06/30 06:47:43;;;;;;;2.22;1.70;;;;;;;;;;7401673;19;20010;-77
2022/06/30 06:50:09;;;;;;;2.88;1.90;;;;;;;;;;7397041;19;20052;-79
2022/06/30 06:52:34;;;;;;;2.78;1.92;;;;;;;;;;7394026;19;20010;-79
2022/06/30 06:55:00;;;;;;;4.63;2.35;;;;;;;;;;7392157;19;20014;-78
2022/06/30 06:57:32;;;;;;;5.03;2.08;;;;;;;;;;7399454;19;20458;-78
2022/06/30 06:59:58;;;;;;;3.58;2.33;;;;;;;;;;7392993;19;20355;-78
2022/06/30 07:02:23;;;;;;;3.28;1.85;;;;;;;;;;7396798;19;20017;-79
2022/06/30 07:04:48;;;;;;;6.80;2.35;;;;;;;;;;7392757;19;20014;-79
2022/06/30 07:07:14;;;;;;;4.35;1.80;;;;;;;;;;7396533;19;20477;-79
2022/06/30 07:09:39;;;;;;;4.70;1.98;;;;;;;;;;7390720;19;20352;-80
2022/06/30 07:12:05;;;;;;;2.20;1.80;;;;;;;;;;7391395;19;19999;-79
2022/06/30 07:14:30;;;;;;;3.95;1.95;;;;;;;;;;7394486;19;20462;-78
2022/06/30 07:16:55;;;;;;;3.95;1.90;;;;;;;;;;7394644;19;20010;-78
2022/06/30 07:19:21;;;;;;;5.40;1.90;;;;;;;;;;7392203;19;20017;-77
2022/06/30 07:21:46;;;;;;;1.67;1.20;;;;;;;;;;7396197;19;20017;-77
2022/06/30 07:24:12;;;;;;;4.72;1.55;;;;;;;;;;7395577;19;20015;-76
2022/06/30 07:26:37;;;;;;;2.22;1.40;;;;;;;;;;7388958;19;20006;-77
2022/06/30 07:29:02;;;;;;;2.78;2.08;;;;;;;;;;7392090;19;20014;-77
2022/06/30 07:31:28;;;;;;;3.90;1.90;;;;;;;;;;7394736;19;20010;-77
2022/06/30 07:33:53;;;;;;;3.20;2.00;;;;;;;;;;7392713;19;20061;-77
2022/06/30 07:36:19;;;;;;;3.72;1.60;;;;;;;;;;7396442;19;20023;-77
2022/06/30 07:38:46;;;;;;;4.10;2.15;;;;;;;;;;7394550;19;20010;-77
2022/06/30 07:41:12;;;;;;;2.65;1.88;;;;;;;;;;7397451;19;20003;-77
2022/06/30 07:43:38;;;;;;;3.08;1.65;;;;;;;;;;7391284;19;20002;-76
2022/06/30 07:46:04;;;;;;;2.50;1.80;;;;;;;;;;7389899;19;20007;-77
2022/06/30 07:48:30;;;;;;;2.17;1.60;;;;;;;;;;7396313;19;20354;-77
2022/06/30 07:50:55;;;;;;;3.42;1.83;;;;;;;;;;7398582;19;20481;-76
2022/06/30 07:53:20;;;;;;;1.90;1.67;;;;;;;;;;7393508;19;20019;-76
2022/06/30 07:55:46;;;;;;;6.25;1.73;;;;;;;;;;7392241;19;20003;-76
2022/06/30 07:58:11;;;;;;;6.68;2.03;;;;;;;;;;7395528;19;21907;-76
2022/06/30 08:00:36;;;;;;;2.20;1.60;;;;;;;;;;7395591;19;20454;-76
2022/06/30 08:03:02;;;;;;;7.30;1.85;;;;;;;;;;7387288;19;20049;-77
2022/06/30 08:05:27;;;;;;;3.55;1.70;;;;;;;;;;7394197;19;20007;-76
2022/06/30 08:07:53;;;;;;;2.38;1.58;;;;;;;;;;7394462;19;20019;-77
2022/06/30 08:10:18;;;;;;;2.53;1.45;;;;;;;;;;7394305;19;20070;-77
2022/06/30 08:12:44;;;;;;;1.98;1.30;;;;;;;;;;7392315;19;20010;-76
2022/06/30 08:15:13;;;;;;;1.67;1.58;;;;;;;;;;7393154;19;20010;-78
2022/06/30 08:17:38;;;;;;;3.58;1.88;;;;;;;;;;7388885;19;20099;-78
2022/06/30 08:20:04;;;;;;;1.80;1.58;;;;;;;;;;7399819;19;20006;-77
2022/06/30 08:22:56;;;;;;;3.55;1.38;;;;;;;;;;7398128;19;20014;-78
2022/06/30 08:25:22;;;;;;;2.72;1.60;;;;;;;;;;7396586;19;20046;-77
2022/06/30 08:27:48;;;;;;;2.83;1.90;;;;;;;;;;7399905;19;21270;-77
2022/06/30 08:30:14;;;;;;;3.88;1.98;;;;;;;;;;7396075;19;20019;-77
2022/06/30 08:32:40;;;;;;;4.65;1.95;;;;;;;;;;7395855;19;20014;-77
2022/06/30 08:35:07;;;;;;;1.88;1.45;;;;;;;;;;7395648;19;20007;-78
2022/06/30 08:37:33;;;;;;;2.22;1.55;;;;;;;;;;7395814;19;20469;-76
2022/06/30 08:42:46;;;;;;;2.65;1.70;;;;;;;;;;7392181;19;20046;-78
2022/06/30 08:45:18;;;;;;;3.30;1.50;;;;;;;;;;7391089;19;20404;-76
2022/06/30 08:47:46;;;;;;;2.20;1.52;;;;;;;;;;7394188;19;19999;-76
2022/06/30 08:50:13;;;;;;;3.15;2.00;;;;;;;;;;7392097;19;20047;-76
2022/06/30 08:53:07;;;;;;;3.30;1.90;;;;;;;;;;7391364;19;20002;-76
2022/06/30 08:55:32;;;;;;;3.47;1.75;;;;;;;;;;7388370;19;20007;-76
2022/06/30 08:58:03;;;;;;;4.60;1.83;;;;;;;;;;7387625;19;20010;-77
2022/06/30 09:00:29;;;;;;;4.20;1.58;;;;;;;;;;7388481;19;21167;-77
2022/06/30 09:02:55;;;;;;;5.22;1.90;;;;;;;;;;7389829;19;20465;-77
2022/06/30 09:05:20;;;;;;;3.83;1.52;;;;;;;;;;7391413;19;20021;-76
2022/06/30 09:07:46;;;;;;;4.00;1.95;;;;;;;;;;7393164;19;20010;-76
2022/06/30 09:10:11;;;;;;;3.75;1.88;;;;;;;;;;7396194;19;20006;-79
2022/06/30 09:12:41;;;;;;;2.80;1.75;;;;;;;;;;7391261;19;20015;-79
2022/06/30 09:15:07;;;;;;;2.83;1.70;;;;;;;;;;7389884;19;20413;-79
2022/06/30 09:17:33;;;;;;;2.17;1.65;;;;;;;;;;7388318;19;20003;-79
2022/06/30 09:20:13;;;;;;;2.75;1.90;;;;;;;;;;7389511;19;20023;-80
2022/06/30 09:22:42;;;;;;;4.30;2.00;;;;;;;;;;7390272;19;20430;-80
2022/06/30 09:25:24;;;;;;;2.20;1.58;;;;;;;;;;7390642;19;20018;-80
2022/06/30 09:28:14;;;;;;;1.42;1.33;;;;;;;;;;7387214;19;20003;-80
2022/06/30 09:30:40;;;;;;;4.65;1.65;;;;;;;;;;7392055;19;19998;-81
2022/06/30 09:33:07;;;;;;;3.03;1.95;;;;;;;;;;7389568;19;20093;-80
2022/06/30 09:39:37;;;;;;;6.78;1.90;;;;;;;;;;7399940;19;20422;-81
2022/06/30 09:42:16;;;;;;;;;;;;;;;;;;7395327;19;20049;-80
2022/06/30 09:45:08;;;;;;;5.10;2.05;;;;;;;;;;7393549;19;19926;-79
2022/06/30 09:47:52;;;;;;;3.95;1.70;;;;;;;;;;7395007;19;20490;-80
2022/06/30 09:50:53;;;;;;;3.10;1.70;;;;;;;;;;7394764;19;20134;-80
2022/06/30 09:54:21;;;;;;;2.00;1.50;;;;;;;;;;7394497;19;20297;-79
2022/06/30 09:57:07;;;;;;;2.58;1.52;;;;;;;;;;7392911;19;19999;-80
2022/06/30 09:59:38;;;;;;;3.33;1.75;;;;;;;;;;7395678;19;20010;-81
2022/06/30 10:02:06;;;;;;;4.88;2.00;;;;;;;;;;7400125;19;20010;-78
2022/06/30 10:04:57;;;;;;;2.80;1.90;;;;;;;;;;7395288;19;20080;-78
2022/06/30 10:07:23;;;;;;;4.95;1.83;;;;;;;;;;7398101;19;20007;-78
2022/06/30 10:10:04;;;;;;;4.65;2.03;;;;;;;;;;7399582;19;20056;-80
2022/06/30 10:12:46;;;;;;;2.30;1.65;;;;;;;;;;7380227;19;20018;-81
2022/06/30 10:19:31;;;;;;;2.97;1.60;;;;;;;;;;7391810;19;20001;-81
2022/06/30 10:22:10;;;;;;;4.22;1.73;;;;;;;;;;7389075;19;20073;-80
2022/06/30 10:24:41;;;;;;;3.72;1.65;;;;;;;;;;7398197;19;20011;-82
2022/06/30 10:27:13;;;;;;;2.10;1.67;;;;;;;;;;7397448;19;20010;-79
2022/06/30 10:29:49;;;;;;;3.63;1.90;;;;;;;;;;7395723;19;20013;-80
2022/06/30 10:32:34;;;;;;;3.75;1.70;;;;;;;;;;7396605;19;20018;-79
2022/06/30 10:35:26;;;;;;;4.22;1.60;;;;;;;;;;7392251;19;20015;-80
2022/06/30 10:38:02;;;;;;;4.20;1.75;;;;;;;;;;7395121;19;20018;-79
2022/06/30 10:40:40;;;;;;;3.15;1.42;;;;;;;;;;7391630;19;20466;-82
2022/06/30 10:43:06;;;;;;;5.25;1.77;;;;;;;;;;7394139;19;20014;-79
2022/06/30 10:45:31;;;;;;;2.72;1.77;;;;;;;;;;7390062;19;20010;-79
2022/06/30 10:48:08;;;;;;;2.55;1.52;;;;;;;;;;7392644;19;20474;-79
2022/06/30 10:50:37;;;;;;;3.90;1.58;;;;;;;;;;7392928;19;20069;-78
2022/06/30 10:53:04;;;;;;;3.15;1.45;;;;;;;;;;7396237;19;20360;-78
2022/06/30 10:55:47;;;;;;;3.63;1.80;;;;;;;;;;7385509;19;20065;-78
2022/06/30 10:58:13;;;;;;;2.33;1.70;;;;;;;;;;7391071;19;20686;-80
2022/06/30 11:00:42;;;;;;;3.33;1.70;;;;;;;;;;7392826;19;20066;-79
2022/06/30 11:03:07;;;;;;;1.95;1.48;;;;;;;;;;7393972;19;20010;-80
2022/06/30 11:05:33;;;;;;;2.72;1.63;;;;;;;;;;7391526;19;20006;-79
2022/06/30 11:08:57;;;;;;;5.78;1.70;;;;;;;;;;7397275;19;20095;-78
2022/06/30 11:11:23;;;;;;;1.98;1.42;;;;;;;;;;7397447;19;20009;-79
2022/06/30 11:13:48;;;;;;;4.30;1.52;;;;;;;;;;7399084;19;20014;-79
2022/06/30 11:16:14;;;;;;;3.53;1.58;;;;;;;;;;7394072;19;20077;-80
2022/06/30 11:18:39;;;;;;;2.83;1.38;;;;;;;;;;7394640;19;20048;-78
2022/06/30 11:21:05;;;;;;;4.88;1.73;;;;;;;;;;7396472;19;19998;-79
2022/06/30 11:23:38;;;;;;;5.03;1.90;;;;;;;;;;7394788;19;20002;-79
2022/06/30 11:28:51;;;;;;;2.75;1.25;;;;;;;;;;7393448;19;20028;-78
2022/06/30 11:31:36;;;;;;;4.63;1.30;;;;;;;;;;7396805;19;20019;-80
2022/06/30 11:34:13;;;;;;;3.78;1.70;;;;;;;;;;7394124;19;20011;-79
2022/06/30 11:36:41;;;;;;;3.38;1.52;;;;;;;;;;7387203;19;20013;-79
2022/06/30 11:39:09;;;;;;;7.05;1.90;;;;;;;;;;7395307;19;20734;-79
2022/06/30 11:44:38;;;;;;;5.35;1.30;;;;;;;;;;7396587;19;20025;-79
2022/06/30 11:47:11;;;;;;;3.38;1.25;;;;;;;;;;7394487;19;20003;-80
2022/06/30 11:49:42;;;;;;;2.17;1.48;;;;;;;;;;7395308;19;20022;-79
2022/06/30 11:52:17;;;;;;;1.92;1.45;;;;;;;;;;7391120;19;20354;-79
2022/06/30 11:54:47;;;;;;;17.10;11.18;;;;;;;;;;7394932;19;20010;-80
2022/06/30 11:57:12;;;;;;;3.38;2.30;;;;;;;;;;7390793;19;20011;-80
2022/06/30 11:59:48;;;;;;;4.28;1.80;;;;;;;;;;7390348;19;20496;-79
2022/06/30 12:02:14;;;;;;;4.10;1.70;;;;;;;;;;7394070;19;20039;-79
2022/06/30 12:04:43;;;;;;;2.40;1.30;;;;;;;;;;7395873;19;20030;-78
2022/06/30 12:07:12;;;;;;;4.85;1.50;;;;;;;;;;7388777;19;20010;-78
2022/06/30 12:09:44;;;;;;;4.60;1.77;;;;;;;;;;7390196;19;20018;-79
2022/06/30 12:12:48;;;;;;;2.72;1.40;;;;;;;;;;7396064;19;20015;-80
2022/06/30 12:15:36;;;;;;;2.80;1.67;;;;;;;;;;7390103;19;20021;-80
2022/06/30 12:18:26;;;;;;;3.47;1.58;;;;;;;;;;7392324;19;20016;-79
2022/06/30 12:21:50;;;;;;;2.53;1.40;;;;;;;;;;7393530;19;20022;-79
2022/06/30 12:24:29;;;;;;;2.92;1.38;;;;;;;;;;7391445;19;20039;-79
2022/06/30 12:27:34;;;;;;;2.70;1.10;;;;;;;;;;7395064;19;20553;-80
2022/06/30 12:30:24;;;;;;;1.30;1.20;;;;;;;;;;7392896;19;20462;-80
2022/06/30 12:32:59;;;;;;;2.80;1.42;;;;;;;;;;7395863;19;20027;-80
2022/06/30 12:35:31;;;;;;;3.13;1.45;;;;;;;;;;7393215;19;20461;-79
2022/06/30 12:37:57;;;;;;;2.42;1.30;;;;;;;;;;7392652;19;20778;-79
2022/06/30 12:40:26;;;;;;;1.77;1.33;;;;;;;;;;7389449;19;20002;-79
2022/06/30 12:42:53;;;;;;;2.60;1.50;;;;;;;;;;7392409;19;20017;-79
2022/06/30 12:45:55;;;;;;;2.50;1.30;;;;;;;;;;7386850;19;20027;-79
2022/06/30 12:48:55;;;;;;;2.22;1.27;;;;;;;;;;7389733;19;20003;-79
2022/06/30 12:51:30;;;;;;;5.43;1.38;;;;;;;;;;7392960;19;20006;-80
2022/06/30 12:54:08;;;;;;;2.53;1.50;;;;;;;;;;7393033;19;20005;-80
2022/06/30 12:57:17;;;;;;;1.95;1.35;;;;;;;;;;7391483;19;20342;-80
2022/06/30 12:59:56;;;;;;;2.85;1.25;;;;;;;;;;7392706;19;20023;-80
2022/06/30 13:02:57;;;;;;;3.65;1.50;;;;;;;;;;7391567;19;20006;-80
2022/06/30 13:05:22;;;;;;;4.03;1.50;;;;;;;;;;7390363;19;20007;-79
2022/06/30 13:07:47;;;;;;;2.38;1.10;;;;;;;;;;7390987;19;20005;-79
2022/06/30 13:11:04;;;;;;;1.38;1.00;;;;;;;;;;7394522;19;20015;-81
2022/06/30 13:13:18;;;;;;;5.00;1.25;;;;;;;;;;7393339;19;20058;-80
2022/06/30 13:15:49;;;;;;;3.70;1.02;;;;;;;;;;7389518;19;20026;-79
2022/06/30 13:18:15;;;;;;;2.90;1.23;;;;;;;;;;7389532;19;20022;-78
2022/06/30 13:20:40;;;;;;;2.47;1.58;;;;;;;;;;7391110;19;20006;-79
2022/06/30 13:23:05;;;;;;;1.80;1.15;;;;;;;;;;7393743;19;20002;-78
2022/06/30 13:25:31;;;;;;;3.53;1.20;;;;;;;;;;7392242;19;20349;-78
2022/06/30 13:27:57;;;;;;;3.72;1.23;;;;;;;;;;7394303;19;20010;-78
2022/06/30 13:30:22;;;;;;;4.28;1.10;;;;;;;;;;7393158;19;20027;-80
2022/06/30 13:32:48;;;;;;;2.20;1.10;;;;;;;;;;7393536;19;20118;-79
2022/06/30 13:35:13;;;;;;;4.05;2.75;;;;;;;;;;7392044;19;20041;-78
2022/06/30 13:37:38;;;;;;;1.83;1.20;;;;;;;;;;7393039;19;20021;-79
2022/06/30 13:40:04;;;;;;;1.80;1.13;;;;;;;;;;7390555;19;20011;-79
2022/06/30 13:42:29;;;;;;;4.22;1.40;;;;;;;;;;7392069;19;20062;-79
2022/06/30 13:44:55;;;;;;;4.22;1.48;;;;;;;;;;7388205;19;20414;-78
2022/06/30 13:47:20;;;;;;;1.63;1.08;;;;;;;;;;7392666;19;20003;-80
2022/06/30 13:49:46;;;;;;;2.10;1.40;;;;;;;;;;7391665;19;20055;-79
2022/06/30 13:52:11;;;;;;;2.90;1.58;;;;;;;;;;7390006;19;20007;-79
2022/06/30 13:54:38;;;;;;;4.13;1.50;;;;;;;;;;7391073;19;20001;-79
2022/06/30 13:57:06;;;;;;;6.15;1.10;;;;;;;;;;7386034;19;20046;-79
2022/06/30 13:59:31;;;;;;;3.28;1.42;;;;;;;;;;7390606;19;20346;-79
2022/06/30 14:01:57;;;;;;;4.38;1.50;;;;;;;;;;7389448;19;20100;-79
2022/06/30 14:04:22;;;;;;;3.60;1.60;;;;;;;;;;7390944;19;20340;-80
2022/06/30 14:06:47;;;;;;;1.90;1.00;;;;;;;;;;7390615;19;20474;-80
2022/06/30 14:09:12;;;;;;;1.42;1.10;;;;;;;;;;7391835;19;20007;-79
2022/06/30 14:11:38;;;;;;;5.82;1.67;;;;;;;;;;7386865;19;20010;-80
2022/06/30 14:14:03;;;;;;;2.13;1.23;;;;;;;;;;7384121;19;20013;-80
2022/06/30 14:16:28;;;;;;;2.92;1.15;;;;;;;;;;7384407;19;19995;-79
2022/06/30 14:19:00;;;;;;;7.60;1.75;;;;;;;;;;7389064;19;20010;-80
2022/06/30 14:21:31;;;;;;;2.92;1.20;;;;;;;;;;7389335;19;20025;-79
2022/06/30 14:23:57;;;;;;;2.47;1.42;;;;;;;;;;7398110;19;20013;-81
2022/06/30 14:26:22;;;;;;;2.00;1.40;;;;;;;;;;7394513;19;20066;-80
2022/06/30 14:28:49;;;;;;;3.47;1.23;;;;;;;;;;7394881;19;20025;-80
2022/06/30 14:31:15;;;;;;;2.97;1.48;;;;;;;;;;7395905;19;20002;-79
2022/06/30 14:33:41;;;;;;;2.95;1.30;;;;;;;;;;7397621;19;20055;-79
2022/06/30 14:36:06;;;;;;;2.22;1.58;;;;;;;;;;7400998;19;20007;-79
2022/06/30 14:38:31;;;;;;;3.17;1.10;;;;;;;;;;7395763;19;20006;-80
2022/06/30 14:40:57;;;;;;;2.22;1.20;;;;;;;;;;7396881;19;20042;-81
2022/06/30 14:43:22;;;;;;;3.35;1.20;;;;;;;;;;7397543;19;20003;-80
2022/06/30 14:45:48;;;;;;;2.60;1.30;;;;;;;;;;7395936;19;20038;-80
2022/06/30 14:48:13;;;;;;;4.43;1.52;;;;;;;;;;7395015;19;20014;-79
2022/06/30 14:50:39;;;;;;;5.40;1.30;;;;;;;;;;7397485;19;20375;-80
2022/06/30 14:53:05;;;;;;;2.00;1.20;;;;;;;;;;7397138;19;20009;-80
2022/06/30 14:55:30;;;;;;;4.72;1.17;;;;;;;;;;7392428;19;20202;-80
2022/06/30 14:57:58;;;;;;;3.00;1.23;;;;;;;;;;7397106;19;20006;-79
2022/06/30 15:00:25;;;;;;;2.53;1.10;;;;;;;;;;7394068;19;20006;-79
2022/06/30 15:02:51;;;;;;;5.53;1.13;;;;;;;;;;7394834;19;20079;-80
2022/06/30 15:05:22;;;;;;;3.63;1.40;;;;;;;;;;7396497;19;19999;-80
2022/06/30 15:07:50;;;;;;;2.55;1.23;;;;;;;;;;7395657;19;20002;-81
2022/06/30 15:10:17;;;;;;;2.70;1.20;;;;;;;;;;7394877;19;20018;-79
2022/06/30 15:12:42;;;;;;;2.90;1.20;;;;;;;;;;7395314;19;20311;-79
2022/06/30 15:15:15;;;;;;;2.08;1.20;;;;;;;;;;7395355;19;20462;-79
2022/06/30 15:17:43;;;;;;;1.65;1.27;;;;;;;;;;7394903;19;20007;-79
2022/06/30 15:20:09;;;;;;;2.28;1.60;;;;;;;;;;7392701;19;20003;-78
2022/06/30 15:25:18;;;;;;;4.43;1.67;;;;;;;;;;7395106;19;20409;-80
2022/06/30 15:27:44;;;;;;;3.40;1.38;;;;;;;;;;7392928;19;20532;-79